sensor_id;sensor_type;location;lat;lon;timestamp;temperature;humidity
69204;DHT22;56317;27.658;85.326;2023-02-28T00:00:44;8.40;99.90
69204;DHT22;56317;27.658;85.326;2023-02-28T00:03:12;8.40;99.90
69204;DHT22;56317;27.658;85.326;2023-02-28T00:05:39;8.40;99.90
69204;DHT22;56317;27.658;85.326;2023-02-28T00:08:08;8.40;99.90
69204;DHT22;56317;27.658;85.326;2023-02-28T00:10:35;8.40;99.90
69204;DHT22;56317;27.658;85.326;2023-02-28T00:13:05;8.40;99.90
69204;DHT22;56317;27.658;85.326;2023-02-28T00:15:33;8.40;99.90
69204;DHT22;56317;27.658;85.326;2023-02-28T00:18:01;8.50;99.90
69204;DHT22;56317;27.658;85.326;2023-02-28T00:20:28;8.50;99.90
69204;DHT22;56317;27.658;85.326;2023-02-28T00:22:56;8.40;99.90
69204;DHT22;56317;27.658;85.326;2023-02-28T00:25:25;8.40;99.90
69204;DHT22;56317;27.658;85.326;2023-02-28T00:27:52;8.40;99.90
69204;DHT22;56317;27.658;85.326;2023-02-28T00:30:21;8.40;99.90
69204;DHT22;56317;27.658;85.326;2023-02-28T00:32:49;8.30;99.90
69204;DHT22;56317;27.658;85.326;2023-02-28T00:35:17;8.30;99.90
69204;DHT22;56317;27.658;85.326;2023-02-28T00:37:45;8.40;99.90
69204;DHT22;56317;27.658;85.326;2023-02-28T00:40:12;8.40;99.90
69204;DHT22;56317;27.658;85.326;2023-02-28T00:42:40;8.40;99.90
69204;DHT22;56317;27.658;85.326;2023-02-28T00:45:07;8.40;99.90
69204;DHT22;56317;27.658;85.326;2023-02-28T00:47:35;8.40;99.90
69204;DHT22;56317;27.658;85.326;2023-02-28T00:50:03;8.40;99.90
69204;DHT22;56317;27.658;85.326;2023-02-28T00:52:30;8.40;99.90
69204;DHT22;56317;27.658;85.326;2023-02-28T00:54:57;8.40;99.90
69204;DHT22;56317;27.658;85.326;2023-02-28T00:57:25;8.40;99.90
69204;DHT22;56317;27.658;85.326;2023-02-28T00:59:52;8.40;99.90
69204;DHT22;56317;27.658;85.326;2023-02-28T01:02:23;8.40;99.90
69204;DHT22;56317;27.658;85.326;2023-02-28T01:04:50;8.40;99.90
69204;DHT22;56317;27.658;85.326;2023-02-28T01:07:17;8.60;99.90
69204;DHT22;56317;27.658;85.326;2023-02-28T01:09:44;8.60;99.90
69204;DHT22;56317;27.658;85.326;2023-02-28T01:12:11;8.70;99.90
69204;DHT22;56317;27.658;85.326;2023-02-28T01:14:38;8.80;99.90
69204;DHT22;56317;27.658;85.326;2023-02-28T01:17:06;8.80;99.90
69204;DHT22;56317;27.658;85.326;2023-02-28T01:19:33;8.90;99.90
69204;DHT22;56317;27.658;85.326;2023-02-28T01:22:05;8.90;99.90
69204;DHT22;56317;27.658;85.326;2023-02-28T01:24:32;9.00;99.90
69204;DHT22;56317;27.658;85.326;2023-02-28T01:26:59;9.00;99.90
69204;DHT22;56317;27.658;85.326;2023-02-28T01:29:26;9.10;99.90
69204;DHT22;56317;27.658;85.326;2023-02-28T01:31:53;9.20;99.90
69204;DHT22;56317;27.658;85.326;2023-02-28T01:34:20;9.30;99.90
69204;DHT22;56317;27.658;85.326;2023-02-28T01:36:47;9.40;99.90
69204;DHT22;56317;27.658;85.326;2023-02-28T01:39:15;9.50;99.90
69204;DHT22;56317;27.658;85.326;2023-02-28T01:41:42;9.60;99.90
69204;DHT22;56317;27.658;85.326;2023-02-28T01:47:21;9.90;99.90
69204;DHT22;56317;27.658;85.326;2023-02-28T01:49:50;10.00;99.90
69204;DHT22;56317;27.658;85.326;2023-02-28T01:52:18;10.20;99.90
69204;DHT22;56317;27.658;85.326;2023-02-28T01:54:56;10.30;99.90
69204;DHT22;56317;27.658;85.326;2023-02-28T01:57:29;10.40;99.90
69204;DHT22;56317;27.658;85.326;2023-02-28T02:00:00;10.60;99.90
69204;DHT22;56317;27.658;85.326;2023-02-28T02:02:36;10.80;99.90
69204;DHT22;56317;27.658;85.326;2023-02-28T02:05:15;11.00;99.90
69204;DHT22;56317;27.658;85.326;2023-02-28T02:07:45;11.20;99.90
69204;DHT22;56317;27.658;85.326;2023-02-28T02:10:14;11.40;99.90
69204;DHT22;56317;27.658;85.326;2023-02-28T02:15:16;11.80;99.90
69204;DHT22;56317;27.658;85.326;2023-02-28T02:17:49;12.10;99.90
69204;DHT22;56317;27.658;85.326;2023-02-28T02:40:25;13.70;99.90
69204;DHT22;56317;27.658;85.326;2023-02-28T02:43:07;14.00;99.90
69204;DHT22;56317;27.658;85.326;2023-02-28T02:45:54;14.10;99.90
69204;DHT22;56317;27.658;85.326;2023-02-28T02:48:25;14.30;99.90
69204;DHT22;56317;27.658;85.326;2023-02-28T02:50:59;14.50;99.90
69204;DHT22;56317;27.658;85.326;2023-02-28T02:53:57;14.80;99.90
69204;DHT22;56317;27.658;85.326;2023-02-28T02:56:29;15.00;99.90
69204;DHT22;56317;27.658;85.326;2023-02-28T02:59:07;15.20;99.90
69204;DHT22;56317;27.658;85.326;2023-02-28T03:01:36;15.30;99.90
69204;DHT22;56317;27.658;85.326;2023-02-28T03:04:18;15.60;99.90
69204;DHT22;56317;27.658;85.326;2023-02-28T03:06:46;15.80;99.90
69204;DHT22;56317;27.658;85.326;2023-02-28T03:09:13;16.00;99.90
69204;DHT22;56317;27.658;85.326;2023-02-28T03:11:41;16.20;99.90
69204;DHT22;56317;27.658;85.326;2023-02-28T03:20:16;16.90;99.90
69204;DHT22;56317;27.658;85.326;2023-02-28T03:26:07;17.10;99.90
69204;DHT22;56317;27.658;85.326;2023-02-28T03:28:51;17.30;99.90
69204;DHT22;56317;27.658;85.326;2023-02-28T03:31:38;17.50;99.90
69204;DHT22;56317;27.658;85.326;2023-02-28T03:34:08;17.80;99.90
69204;DHT22;56317;27.658;85.326;2023-02-28T03:36:53;18.00;99.90
69204;DHT22;56317;27.658;85.326;2023-02-28T03:39:37;18.40;99.90
69204;DHT22;56317;27.658;85.326;2023-02-28T03:42:27;18.60;99.90
69204;DHT22;56317;27.658;85.326;2023-02-28T03:44:59;18.80;99.90
69204;DHT22;56317;27.658;85.326;2023-02-28T03:50:27;19.40;99.90
69204;DHT22;56317;27.658;85.326;2023-02-28T03:53:21;19.50;99.90
69204;DHT22;56317;27.658;85.326;2023-02-28T03:56:13;19.60;99.90
69204;DHT22;56317;27.658;85.326;2023-02-28T04:04:25;20.40;99.90
69204;DHT22;56317;27.658;85.326;2023-02-28T04:07:11;20.80;98.60
69204;DHT22;56317;27.658;85.326;2023-02-28T04:09:38;21.00;98.20
69204;DHT22;56317;27.658;85.326;2023-02-28T04:12:06;21.10;97.60
69204;DHT22;56317;27.658;85.326;2023-02-28T04:14:34;21.10;95.40
69204;DHT22;56317;27.658;85.326;2023-02-28T04:17:02;21.30;94.90
69204;DHT22;56317;27.658;85.326;2023-02-28T04:19:29;21.50;93.40
69204;DHT22;56317;27.658;85.326;2023-02-28T04:21:57;21.60;94.10
69204;DHT22;56317;27.658;85.326;2023-02-28T04:24:26;22.00;94.70
69204;DHT22;56317;27.658;85.326;2023-02-28T04:26:56;22.40;93.50
69204;DHT22;56317;27.658;85.326;2023-02-28T04:29:26;22.70;92.30
69204;DHT22;56317;27.658;85.326;2023-02-28T04:31:55;23.00;91.00
69204;DHT22;56317;27.658;85.326;2023-02-28T04:34:30;23.00;90.60
69204;DHT22;56317;27.658;85.326;2023-02-28T04:36:58;23.20;90.70
69204;DHT22;56317;27.658;85.326;2023-02-28T04:39:26;23.50;86.90
69204;DHT22;56317;27.658;85.326;2023-02-28T04:41:54;23.70;83.50
69204;DHT22;56317;27.658;85.326;2023-02-28T04:44:22;23.90;80.90
69204;DHT22;56317;27.658;85.326;2023-02-28T04:46:49;24.10;82.10
69204;DHT22;56317;27.658;85.326;2023-02-28T04:49:16;24.20;79.90
69204;DHT22;56317;27.658;85.326;2023-02-28T04:51:44;24.40;78.90
69204;DHT22;56317;27.658;85.326;2023-02-28T04:54:11;24.60;77.60
69204;DHT22;56317;27.658;85.326;2023-02-28T04:56:39;24.90;75.80
69204;DHT22;56317;27.658;85.326;2023-02-28T04:59:07;25.80;73.60
69204;DHT22;56317;27.658;85.326;2023-02-28T05:01:34;26.90;70.60
69204;DHT22;56317;27.658;85.326;2023-02-28T05:04:03;27.70;69.00
69204;DHT22;56317;27.658;85.326;2023-02-28T05:06:32;28.30;66.70
69204;DHT22;56317;27.658;85.326;2023-02-28T05:09:00;29.00;62.40
69204;DHT22;56317;27.658;85.326;2023-02-28T05:11:30;29.30;58.60
69204;DHT22;56317;27.658;85.326;2023-02-28T05:14:07;30.20;59.50
69204;DHT22;56317;27.658;85.326;2023-02-28T05:16:36;31.20;56.90
69204;DHT22;56317;27.658;85.326;2023-02-28T05:19:04;32.20;53.10
69204;DHT22;56317;27.658;85.326;2023-02-28T05:21:33;32.90;54.30
69204;DHT22;56317;27.658;85.326;2023-02-28T05:24:06;33.30;52.00
69204;DHT22;56317;27.658;85.326;2023-02-28T05:26:40;33.80;50.40
69204;DHT22;56317;27.658;85.326;2023-02-28T05:29:10;34.00;49.80
69204;DHT22;56317;27.658;85.326;2023-02-28T05:31:38;34.20;47.80
69204;DHT22;56317;27.658;85.326;2023-02-28T05:34:05;34.60;46.30
69204;DHT22;56317;27.658;85.326;2023-02-28T05:36:33;35.00;46.20
69204;DHT22;56317;27.658;85.326;2023-02-28T05:39:00;35.20;45.30
69204;DHT22;56317;27.658;85.326;2023-02-28T05:41:28;34.90;45.50
69204;DHT22;56317;27.658;85.326;2023-02-28T05:43:57;35.10;45.00
69204;DHT22;56317;27.658;85.326;2023-02-28T05:46:24;35.30;45.00
69204;DHT22;56317;27.658;85.326;2023-02-28T05:48:51;35.70;43.80
69204;DHT22;56317;27.658;85.326;2023-02-28T05:51:19;36.40;42.90
69204;DHT22;56317;27.658;85.326;2023-02-28T05:53:46;36.50;42.90
69204;DHT22;56317;27.658;85.326;2023-02-28T05:56:15;37.30;42.00
69204;DHT22;56317;27.658;85.326;2023-02-28T05:58:43;38.00;40.90
69204;DHT22;56317;27.658;85.326;2023-02-28T06:04:03;39.60;39.10
69204;DHT22;56317;27.658;85.326;2023-02-28T06:06:31;40.00;38.60
69204;DHT22;56317;27.658;85.326;2023-02-28T06:09:00;40.10;38.20
69204;DHT22;56317;27.658;85.326;2023-02-28T06:11:28;40.00;38.30
69204;DHT22;56317;27.658;85.326;2023-02-28T06:13:56;40.50;37.90
69204;DHT22;56317;27.658;85.326;2023-02-28T06:16:27;40.90;36.50
69204;DHT22;56317;27.658;85.326;2023-02-28T06:18:56;41.00;36.30
69204;DHT22;56317;27.658;85.326;2023-02-28T06:21:24;41.10;35.90
69204;DHT22;56317;27.658;85.326;2023-02-28T06:23:53;41.30;35.30
69204;DHT22;56317;27.658;85.326;2023-02-28T06:26:20;41.30;35.00
69204;DHT22;56317;27.658;85.326;2023-02-28T06:28:47;41.30;34.60
69204;DHT22;56317;27.658;85.326;2023-02-28T06:31:16;41.40;34.50
69204;DHT22;56317;27.658;85.326;2023-02-28T06:33:44;41.50;34.20
69204;DHT22;56317;27.658;85.326;2023-02-28T06:36:13;41.70;34.40
69204;DHT22;56317;27.658;85.326;2023-02-28T06:38:42;42.00;35.10
69204;DHT22;56317;27.658;85.326;2023-02-28T06:41:10;42.20;33.70
69204;DHT22;56317;27.658;85.326;2023-02-28T06:43:40;42.30;33.30
69204;DHT22;56317;27.658;85.326;2023-02-28T06:46:12;41.80;32.60
69204;DHT22;56317;27.658;85.326;2023-02-28T06:48:40;40.90;33.10
69204;DHT22;56317;27.658;85.326;2023-02-28T06:51:12;41.10;33.70
69204;DHT22;56317;27.658;85.326;2023-02-28T06:53:40;41.80;34.10
69204;DHT22;56317;27.658;85.326;2023-02-28T06:56:10;41.60;34.30
69204;DHT22;56317;27.658;85.326;2023-02-28T06:58:38;41.60;34.20
69204;DHT22;56317;27.658;85.326;2023-02-28T07:01:06;41.90;34.10
69204;DHT22;56317;27.658;85.326;2023-02-28T07:03:35;42.50;33.90
69204;DHT22;56317;27.658;85.326;2023-02-28T07:06:04;42.90;32.70
69204;DHT22;56317;27.658;85.326;2023-02-28T07:08:32;43.00;32.50
69204;DHT22;56317;27.658;85.326;2023-02-28T07:11:00;42.10;32.10
69204;DHT22;56317;27.658;85.326;2023-02-28T07:13:27;41.30;33.00
69204;DHT22;56317;27.658;85.326;2023-02-28T07:16:00;40.20;33.90
69204;DHT22;56317;27.658;85.326;2023-02-28T07:18:28;39.70;33.90
69204;DHT22;56317;27.658;85.326;2023-02-28T07:20:55;38.80;34.20
69204;DHT22;56317;27.658;85.326;2023-02-28T07:23:23;38.70;34.40
69204;DHT22;56317;27.658;85.326;2023-02-28T07:25:51;38.80;34.90
69204;DHT22;56317;27.658;85.326;2023-02-28T07:28:18;38.90;34.80
69204;DHT22;56317;27.658;85.326;2023-02-28T07:30:46;39.00;34.80
69204;DHT22;56317;27.658;85.326;2023-02-28T07:33:16;38.80;34.30
69204;DHT22;56317;27.658;85.326;2023-02-28T07:35:45;38.10;34.70
69204;DHT22;56317;27.658;85.326;2023-02-28T07:38:12;38.00;35.30
69204;DHT22;56317;27.658;85.326;2023-02-28T07:40:40;38.50;35.20
69204;DHT22;56317;27.658;85.326;2023-02-28T07:43:08;38.60;34.90
69204;DHT22;56317;27.658;85.326;2023-02-28T07:45:35;38.50;35.20
69204;DHT22;56317;27.658;85.326;2023-02-28T07:48:03;38.00;35.40
69204;DHT22;56317;27.658;85.326;2023-02-28T07:50:30;38.10;35.60
69204;DHT22;56317;27.658;85.326;2023-02-28T07:52:58;38.40;35.30
69204;DHT22;56317;27.658;85.326;2023-02-28T07:55:26;39.00;35.10
69204;DHT22;56317;27.658;85.326;2023-02-28T07:57:53;39.50;35.20
69204;DHT22;56317;27.658;85.326;2023-02-28T08:00:21;39.80;35.30
69204;DHT22;56317;27.658;85.326;2023-02-28T08:02:48;39.80;35.30
69204;DHT22;56317;27.658;85.326;2023-02-28T08:05:17;39.10;35.50
69204;DHT22;56317;27.658;85.326;2023-02-28T08:07:44;38.90;35.50
69204;DHT22;56317;27.658;85.326;2023-02-28T08:10:15;39.20;36.30
69204;DHT22;56317;27.658;85.326;2023-02-28T08:12:42;37.20;36.30
69204;DHT22;56317;27.658;85.326;2023-02-28T08:15:09;36.00;37.90
69204;DHT22;56317;27.658;85.326;2023-02-28T08:17:37;35.50;38.00
69204;DHT22;56317;27.658;85.326;2023-02-28T08:20:05;34.60;38.50
69204;DHT22;56317;27.658;85.326;2023-02-28T08:22:32;34.10;39.20
69204;DHT22;56317;27.658;85.326;2023-02-28T08:25:00;34.50;39.10
69204;DHT22;56317;27.658;85.326;2023-02-28T08:27:27;34.40;38.90
69204;DHT22;56317;27.658;85.326;2023-02-28T08:29:54;33.80;39.70
69204;DHT22;56317;27.658;85.326;2023-02-28T08:32:22;34.30;39.50
69204;DHT22;56317;27.658;85.326;2023-02-28T08:34:49;34.70;39.50
69204;DHT22;56317;27.658;85.326;2023-02-28T08:37:17;35.10;39.60
69204;DHT22;56317;27.658;85.326;2023-02-28T08:39:45;35.20;39.00
69204;DHT22;56317;27.658;85.326;2023-02-28T08:42:14;34.80;39.30
69204;DHT22;56317;27.658;85.326;2023-02-28T08:44:42;34.40;39.40
69204;DHT22;56317;27.658;85.326;2023-02-28T08:47:09;32.30;40.80
69204;DHT22;56317;27.658;85.326;2023-02-28T08:49:37;30.20;42.60
69204;DHT22;56317;27.658;85.326;2023-02-28T08:52:04;30.20;44.00
69204;DHT22;56317;27.658;85.326;2023-02-28T08:54:32;29.70;44.40
69204;DHT22;56317;27.658;85.326;2023-02-28T08:57:01;28.90;45.00
69204;DHT22;56317;27.658;85.326;2023-02-28T08:59:28;27.90;46.30
69204;DHT22;56317;27.658;85.326;2023-02-28T09:01:55;27.20;47.60
69204;DHT22;56317;27.658;85.326;2023-02-28T09:04:23;26.50;49.10
69204;DHT22;56317;27.658;85.326;2023-02-28T09:06:51;26.60;49.80
69204;DHT22;56317;27.658;85.326;2023-02-28T09:09:18;28.00;48.80
69204;DHT22;56317;27.658;85.326;2023-02-28T09:11:45;29.80;46.60
69204;DHT22;56317;27.658;85.326;2023-02-28T09:14:13;31.10;45.30
69204;DHT22;56317;27.658;85.326;2023-02-28T09:16:40;32.00;44.30
69204;DHT22;56317;27.658;85.326;2023-02-28T09:19:11;32.50;43.30
69204;DHT22;56317;27.658;85.326;2023-02-28T09:21:38;33.60;42.30
69204;DHT22;56317;27.658;85.326;2023-02-28T09:24:06;33.60;41.40
69204;DHT22;56317;27.658;85.326;2023-02-28T09:26:34;32.60;41.80
69204;DHT22;56317;27.658;85.326;2023-02-28T09:29:01;32.40;42.40
69204;DHT22;56317;27.658;85.326;2023-02-28T09:31:29;31.90;42.70
69204;DHT22;56317;27.658;85.326;2023-02-28T09:33:57;31.20;43.10
69204;DHT22;56317;27.658;85.326;2023-02-28T09:36:27;31.10;43.70
69204;DHT22;56317;27.658;85.326;2023-02-28T09:39:05;31.30;44.10
69204;DHT22;56317;27.658;85.326;2023-02-28T09:41:44;31.20;44.20
69204;DHT22;56317;27.658;85.326;2023-02-28T09:44:44;31.40;44.20
69204;DHT22;56317;27.658;85.326;2023-02-28T09:50:18;30.60;44.70
69204;DHT22;56317;27.658;85.326;2023-02-28T09:52:52;29.40;45.40
69204;DHT22;56317;27.658;85.326;2023-02-28T09:55:22;28.50;47.40
69204;DHT22;56317;27.658;85.326;2023-02-28T09:57:52;28.70;47.40
69204;DHT22;56317;27.658;85.326;2023-02-28T10:05:33;28.00;48.50
69204;DHT22;56317;27.658;85.326;2023-02-28T10:08:18;27.80;49.00
69204;DHT22;56317;27.658;85.326;2023-02-28T10:10:59;27.80;49.00
69204;DHT22;56317;27.658;85.326;2023-02-28T10:13:57;27.60;49.90
69204;DHT22;56317;27.658;85.326;2023-02-28T10:16:50;28.30;48.80
69204;DHT22;56317;27.658;85.326;2023-02-28T10:19:26;27.30;49.60
69204;DHT22;56317;27.658;85.326;2023-02-28T10:22:00;26.10;51.50
69204;DHT22;56317;27.658;85.326;2023-02-28T10:24:43;25.60;52.90
69204;DHT22;56317;27.658;85.326;2023-02-28T10:27:22;25.20;54.00
69204;DHT22;56317;27.658;85.326;2023-02-28T10:29:57;24.80;55.20
69204;DHT22;56317;27.658;85.326;2023-02-28T10:32:34;24.80;55.80
69204;DHT22;56317;27.658;85.326;2023-02-28T10:37:44;24.70;56.40
69204;DHT22;56317;27.658;85.326;2023-02-28T10:43:12;24.20;57.70
69204;DHT22;56317;27.658;85.326;2023-02-28T10:48:38;25.10;56.30
69204;DHT22;56317;27.658;85.326;2023-02-28T10:51:11;24.90;57.00
69204;DHT22;56317;27.658;85.326;2023-02-28T10:53:53;24.10;58.10
69204;DHT22;56317;27.658;85.326;2023-02-28T10:56:23;23.30;60.20
69204;DHT22;56317;27.658;85.326;2023-02-28T10:59:00;22.70;61.70
69204;DHT22;56317;27.658;85.326;2023-02-28T11:01:39;22.10;63.40
69204;DHT22;56317;27.658;85.326;2023-02-28T11:04:34;21.60;64.50
69204;DHT22;56317;27.658;85.326;2023-02-28T11:07:21;21.30;66.10
69204;DHT22;56317;27.658;85.326;2023-02-28T11:09:58;21.30;67.10
69204;DHT22;56317;27.658;85.326;2023-02-28T11:12:39;21.50;66.60
69204;DHT22;56317;27.658;85.326;2023-02-28T11:15:32;21.60;66.60
69204;DHT22;56317;27.658;85.326;2023-02-28T11:18:26;21.50;66.60
69204;DHT22;56317;27.658;85.326;2023-02-28T11:20:56;21.10;67.70
69204;DHT22;56317;27.658;85.326;2023-02-28T11:23:26;20.80;68.80
69204;DHT22;56317;27.658;85.326;2023-02-28T11:25:56;20.50;70.50
69204;DHT22;56317;27.658;85.326;2023-02-28T11:28:38;20.30;71.80
69204;DHT22;56317;27.658;85.326;2023-02-28T11:31:16;20.10;72.70
69204;DHT22;56317;27.658;85.326;2023-02-28T11:33:55;19.80;75.00
69204;DHT22;56317;27.658;85.326;2023-02-28T11:36:28;19.60;75.80
69204;DHT22;56317;27.658;85.326;2023-02-28T11:38:59;19.30;77.40
69204;DHT22;56317;27.658;85.326;2023-02-28T11:41:43;19.00;80.40
69204;DHT22;56317;27.658;85.326;2023-02-28T11:52:40;18.30;92.50
69204;DHT22;56317;27.658;85.326;2023-02-28T12:20:08;17.10;99.90
69204;DHT22;56317;27.658;85.326;2023-02-28T12:25:50;16.90;99.90
69204;DHT22;56317;27.658;85.326;2023-02-28T12:28:24;16.90;99.90
69204;DHT22;56317;27.658;85.326;2023-02-28T12:31:13;16.80;99.90
69204;DHT22;56317;27.658;85.326;2023-02-28T12:33:47;16.70;99.90
69204;DHT22;56317;27.658;85.326;2023-02-28T12:36:17;16.60;99.90
69204;DHT22;56317;27.658;85.326;2023-02-28T12:38:55;16.60;99.90
69204;DHT22;56317;27.658;85.326;2023-02-28T12:41:46;16.50;99.90
69204;DHT22;56317;27.658;85.326;2023-02-28T12:44:28;16.40;99.90
69204;DHT22;56317;27.658;85.326;2023-02-28T12:47:02;16.40;99.90
69204;DHT22;56317;27.658;85.326;2023-02-28T12:49:34;16.30;99.90
69204;DHT22;56317;27.658;85.326;2023-02-28T12:52:04;16.30;99.90
69204;DHT22;56317;27.658;85.326;2023-02-28T12:54:41;16.20;99.90
69204;DHT22;56317;27.658;85.326;2023-02-28T12:57:24;16.20;99.90
69204;DHT22;56317;27.658;85.326;2023-02-28T12:59:58;16.20;99.90
69204;DHT22;56317;27.658;85.326;2023-02-28T13:10:17;15.90;99.90
69204;DHT22;56317;27.658;85.326;2023-02-28T13:12:50;15.90;99.90
69204;DHT22;56317;27.658;85.326;2023-02-28T13:15:27;15.90;99.90
69204;DHT22;56317;27.658;85.326;2023-02-28T13:17:59;15.80;99.90
69204;DHT22;56317;27.658;85.326;2023-02-28T13:20:36;15.80;99.90
69204;DHT22;56317;27.658;85.326;2023-02-28T13:23:04;15.70;99.90
69204;DHT22;56317;27.658;85.326;2023-02-28T13:25:52;15.70;99.90
69204;DHT22;56317;27.658;85.326;2023-02-28T13:31:16;15.60;99.90
69204;DHT22;56317;27.658;85.326;2023-02-28T13:36:29;15.50;99.90
69204;DHT22;56317;27.658;85.326;2023-02-28T13:39:01;15.50;99.90
69204;DHT22;56317;27.658;85.326;2023-02-28T13:44:08;15.40;99.90
69204;DHT22;56317;27.658;85.326;2023-02-28T13:55:03;15.30;99.90
69204;DHT22;56317;27.658;85.326;2023-02-28T14:09:33;15.00;99.90
69204;DHT22;56317;27.658;85.326;2023-02-28T14:11:42;15.00;99.90
69204;DHT22;56317;27.658;85.326;2023-02-28T14:17:06;15.00;99.90
69204;DHT22;56317;27.658;85.326;2023-02-28T14:19:37;14.90;99.90
69204;DHT22;56317;27.658;85.326;2023-02-28T14:25:10;14.80;99.90
69204;DHT22;56317;27.658;85.326;2023-02-28T14:33:43;14.60;99.90
69204;DHT22;56317;27.658;85.326;2023-02-28T14:36:41;14.60;99.90
69204;DHT22;56317;27.658;85.326;2023-02-28T14:39:19;14.50;99.90
69204;DHT22;56317;27.658;85.326;2023-02-28T14:41:47;14.50;99.90
69204;DHT22;56317;27.658;85.326;2023-02-28T14:46:46;14.50;99.90
69204;DHT22;56317;27.658;85.326;2023-02-28T14:49:30;14.50;99.90
69204;DHT22;56317;27.658;85.326;2023-02-28T14:54:37;14.40;99.90
69204;DHT22;56317;27.658;85.326;2023-02-28T14:57:05;14.40;99.90
69204;DHT22;56317;27.658;85.326;2023-02-28T14:59:35;14.30;99.90
69204;DHT22;56317;27.658;85.326;2023-02-28T15:02:20;14.30;99.90
69204;DHT22;56317;27.658;85.326;2023-02-28T15:07:37;14.30;99.90
69204;DHT22;56317;27.658;85.326;2023-02-28T15:12:59;14.40;99.90
69204;DHT22;56317;27.658;85.326;2023-02-28T15:15:43;14.40;99.90
69204;DHT22;56317;27.658;85.326;2023-02-28T15:20:54;14.40;99.90
69204;DHT22;56317;27.658;85.326;2023-02-28T15:23:22;14.30;99.90
69204;DHT22;56317;27.658;85.326;2023-02-28T15:25:50;14.30;99.90
69204;DHT22;56317;27.658;85.326;2023-02-28T15:28:21;14.30;99.90
69204;DHT22;56317;27.658;85.326;2023-02-28T15:30:55;14.20;99.90
69204;DHT22;56317;27.658;85.326;2023-02-28T15:33:28;14.20;99.90
69204;DHT22;56317;27.658;85.326;2023-02-28T15:36:16;14.10;99.90
69204;DHT22;56317;27.658;85.326;2023-02-28T15:38:51;14.10;99.90
69204;DHT22;56317;27.658;85.326;2023-02-28T15:41:30;14.00;99.90
69204;DHT22;56317;27.658;85.326;2023-02-28T15:44:26;14.00;99.90
69204;DHT22;56317;27.658;85.326;2023-02-28T15:47:23;13.90;99.90
69204;DHT22;56317;27.658;85.326;2023-02-28T15:50:03;13.90;99.90
69204;DHT22;56317;27.658;85.326;2023-02-28T15:52:42;13.80;99.90
69204;DHT22;56317;27.658;85.326;2023-02-28T15:55:20;13.70;99.90
69204;DHT22;56317;27.658;85.326;2023-02-28T15:57:56;13.60;99.90
69204;DHT22;56317;27.658;85.326;2023-02-28T16:00:30;13.60;99.90
69204;DHT22;56317;27.658;85.326;2023-02-28T16:03:01;13.60;99.90
69204;DHT22;56317;27.658;85.326;2023-02-28T16:05:30;13.60;99.90
69204;DHT22;56317;27.658;85.326;2023-02-28T16:08:15;13.50;99.90
69204;DHT22;56317;27.658;85.326;2023-02-28T16:10:44;13.50;99.90
69204;DHT22;56317;27.658;85.326;2023-02-28T16:13:20;13.40;99.90
69204;DHT22;56317;27.658;85.326;2023-02-28T16:15:47;13.30;99.90
69204;DHT22;56317;27.658;85.326;2023-02-28T16:18:17;13.30;99.90
69204;DHT22;56317;27.658;85.326;2023-02-28T16:20:45;13.20;99.90
69204;DHT22;56317;27.658;85.326;2023-02-28T16:23:12;13.20;99.90
69204;DHT22;56317;27.658;85.326;2023-02-28T16:25:42;13.10;99.90
69204;DHT22;56317;27.658;85.326;2023-02-28T16:28:20;13.00;99.90
69204;DHT22;56317;27.658;85.326;2023-02-28T16:30:51;13.00;99.90
69204;DHT22;56317;27.658;85.326;2023-02-28T16:33:19;13.00;99.90
69204;DHT22;56317;27.658;85.326;2023-02-28T16:35:46;12.90;99.90
69204;DHT22;56317;27.658;85.326;2023-02-28T16:38:13;13.00;99.90
69204;DHT22;56317;27.658;85.326;2023-02-28T16:40:41;12.90;99.90
69204;DHT22;56317;27.658;85.326;2023-02-28T16:43:15;12.80;99.90
69204;DHT22;56317;27.658;85.326;2023-02-28T16:45:43;12.80;99.90
69204;DHT22;56317;27.658;85.326;2023-02-28T16:48:15;12.80;99.90
69204;DHT22;56317;27.658;85.326;2023-02-28T16:50:43;12.70;99.90
69204;DHT22;56317;27.658;85.326;2023-02-28T16:53:11;12.70;99.90
69204;DHT22;56317;27.658;85.326;2023-02-28T16:55:38;12.70;99.90
69204;DHT22;56317;27.658;85.326;2023-02-28T16:58:05;12.70;99.90
69204;DHT22;56317;27.658;85.326;2023-02-28T17:00:33;12.60;99.90
69204;DHT22;56317;27.658;85.326;2023-02-28T17:03:00;12.60;99.90
69204;DHT22;56317;27.658;85.326;2023-02-28T17:05:34;12.50;99.90
69204;DHT22;56317;27.658;85.326;2023-02-28T17:08:04;12.50;99.90
69204;DHT22;56317;27.658;85.326;2023-02-28T17:10:31;12.40;99.90
69204;DHT22;56317;27.658;85.326;2023-02-28T17:12:59;12.40;99.90
69204;DHT22;56317;27.658;85.326;2023-02-28T17:15:26;12.30;99.90
69204;DHT22;56317;27.658;85.326;2023-02-28T17:17:53;12.30;99.90
69204;DHT22;56317;27.658;85.326;2023-02-28T17:20:22;12.20;99.90
69204;DHT22;56317;27.658;85.326;2023-02-28T17:22:50;12.20;99.90
69204;DHT22;56317;27.658;85.326;2023-02-28T17:25:18;12.20;99.90
69204;DHT22;56317;27.658;85.326;2023-02-28T17:27:45;12.10;99.90
69204;DHT22;56317;27.658;85.326;2023-02-28T17:30:18;12.20;99.90
69204;DHT22;56317;27.658;85.326;2023-02-28T17:32:45;12.10;99.90
69204;DHT22;56317;27.658;85.326;2023-02-28T17:35:13;12.10;99.90
69204;DHT22;56317;27.658;85.326;2023-02-28T17:37:41;12.00;99.90
69204;DHT22;56317;27.658;85.326;2023-02-28T17:40:15;12.00;99.90
69204;DHT22;56317;27.658;85.326;2023-02-28T17:42:43;11.90;99.90
69204;DHT22;56317;27.658;85.326;2023-02-28T17:45:11;11.90;99.90
69204;DHT22;56317;27.658;85.326;2023-02-28T17:47:39;11.80;99.90
69204;DHT22;56317;27.658;85.326;2023-02-28T17:50:15;11.80;99.90
69204;DHT22;56317;27.658;85.326;2023-02-28T17:52:43;11.80;99.90
69204;DHT22;56317;27.658;85.326;2023-02-28T17:55:10;11.70;99.90
69204;DHT22;56317;27.658;85.326;2023-02-28T17:57:38;11.70;99.90
69204;DHT22;56317;27.658;85.326;2023-02-28T18:00:07;11.70;99.90
69204;DHT22;56317;27.658;85.326;2023-02-28T18:02:34;11.70;99.90
69204;DHT22;56317;27.658;85.326;2023-02-28T18:05:01;11.70;99.90
69204;DHT22;56317;27.658;85.326;2023-02-28T18:07:31;11.70;99.90
69204;DHT22;56317;27.658;85.326;2023-02-28T18:09:58;11.70;99.90
69204;DHT22;56317;27.658;85.326;2023-02-28T18:12:25;11.70;99.90
69204;DHT22;56317;27.658;85.326;2023-02-28T18:14:53;11.70;99.90
69204;DHT22;56317;27.658;85.326;2023-02-28T18:17:20;11.70;99.90
69204;DHT22;56317;27.658;85.326;2023-02-28T18:19:47;11.70;99.90
69204;DHT22;56317;27.658;85.326;2023-02-28T18:22:14;11.60;99.90
69204;DHT22;56317;27.658;85.326;2023-02-28T18:24:43;11.50;99.90